Time;durP1;ratioP1;P1;durP2;ratioP2;P2;SDS_P1;SDS_P2;PMS_P1;PMS_P2;Temp;Humidity;BMP_temperature;BMP_pressure;BME280_temperature;BME280_humidity;BME280_pressure;Samples;Min_cycle;Max_cycle;Signal;HPM_P1;HPM_P2
2024/01/26 00:01:13;;;;;;;0.60;0.60;;;;;;;9.13;100.00;96411.44;4342896;32;20193;-58
2024/01/26 00:03:39;;;;;;;0.33;0.33;;;;;;;9.05;100.00;96414.56;4365421;32;20216;-59
2024/01/26 00:06:04;;;;;;;0.50;0.50;;;;;;;9.26;100.00;96410.97;4364241;32;20251;-60
2024/01/26 00:08:30;;;;;;;0.63;0.63;;;;;;;9.07;100.00;96407.16;4359963;32;20189;-59
2024/01/26 00:10:56;;;;;;;0.57;0.57;;;;;;;9.08;100.00;96408.78;4369480;32;20279;-59
2024/01/26 00:13:22;;;;;;;0.43;0.43;;;;;;;8.91;100.00;96409.75;4367832;32;20209;-59
2024/01/26 00:15:49;;;;;;;0.73;0.73;;;;;;;9.01;100.00;96408.19;4357499;32;20297;-59
2024/01/26 00:18:15;;;;;;;0.23;0.23;;;;;;;8.96;100.00;96401.81;4357855;32;20208;-58
2024/01/26 00:20:40;;;;;;;0.93;0.67;;;;;;;8.99;100.00;96394.41;4353428;32;20220;-59
2024/01/26 00:23:05;;;;;;;0.47;0.47;;;;;;;9.07;100.00;96404.53;4352465;32;20204;-59
2024/01/26 00:25:31;;;;;;;0.40;0.40;;;;;;;8.89;100.00;96401.25;4357698;32;20197;-59
2024/01/26 00:27:56;;;;;;;0.40;0.40;;;;;;;8.84;100.00;96393.28;4347157;32;20205;-59
2024/01/26 00:30:21;;;;;;;0.43;0.43;;;;;;;8.75;100.00;96394.78;4362745;32;20209;-58
2024/01/26 00:32:47;;;;;;;0.80;0.63;;;;;;;8.75;100.00;96386.84;4349929;32;20215;-59
2024/01/26 00:35:12;;;;;;;1.93;1.00;;;;;;;8.83;100.00;96391.69;4358130;32;20196;-59
2024/01/26 00:37:38;;;;;;;0.70;0.70;;;;;;;8.88;100.00;96394.38;4359280;32;20201;-58
2024/01/26 00:40:04;;;;;;;0.37;0.37;;;;;;;8.90;100.00;96394.13;4371818;32;20189;-59
2024/01/26 00:42:29;;;;;;;0.50;0.50;;;;;;;8.76;100.00;96393.75;4353666;32;20268;-59
2024/01/26 00:44:54;;;;;;;0.83;0.83;;;;;;;8.78;100.00;96391.66;4370986;32;20200;-59
2024/01/26 00:47:20;;;;;;;0.87;0.87;;;;;;;8.80;100.00;96400.12;4375257;32;20188;-58
2024/01/26 00:49:45;;;;;;;0.90;0.90;;;;;;;8.89;100.00;96395.97;4372157;32;20249;-59
2024/01/26 00:52:10;;;;;;;0.73;0.73;;;;;;;8.90;100.00;96399.41;4347028;32;20188;-59
2024/01/26 00:54:37;;;;;;;0.53;0.53;;;;;;;8.90;100.00;96402.06;4370678;32;20214;-58
2024/01/26 00:57:04;;;;;;;0.27;0.27;;;;;;;8.93;100.00;96398.91;4364954;32;20200;-59
2024/01/26 00:59:30;;;;;;;0.50;0.50;;;;;;;8.95;100.00;96405.50;4372739;32;20240;-58
2024/01/26 01:01:57;;;;;;;0.73;0.73;;;;;;;8.91;100.00;96404.44;4366905;32;20181;-59
2024/01/26 01:04:23;;;;;;;0.57;0.57;;;;;;;8.90;100.00;96402.84;4355222;32;20196;-59
2024/01/26 01:06:48;;;;;;;0.50;0.50;;;;;;;8.84;100.00;96403.06;4358876;32;20236;-59
2024/01/26 01:09:14;;;;;;;1.27;0.63;;;;;;;8.88;100.00;96410.25;4359204;32;20323;-59
2024/01/26 01:11:40;;;;;;;0.77;0.77;;;;;;;8.97;100.00;96402.59;4353814;32;20215;-59
2024/01/26 01:14:05;;;;;;;0.63;0.63;;;;;;;8.96;100.00;96408.94;4357128;32;20192;-59
2024/01/26 01:16:32;;;;;;;0.83;0.83;;;;;;;8.90;100.00;96402.84;4351487;32;20328;-59
2024/01/26 01:18:58;;;;;;;0.93;0.80;;;;;;;9.00;100.00;96396.81;4363748;32;20207;-59
2024/01/26 01:21:23;;;;;;;0.93;0.73;;;;;;;9.14;100.00;96415.69;4362783;32;20293;-59
2024/01/26 01:23:49;;;;;;;0.70;0.70;;;;;;;8.98;100.00;96409.50;4363308;32;20197;-59
2024/01/26 01:26:16;;;;;;;0.37;0.37;;;;;;;8.98;100.00;96408.69;4369792;32;20205;-59
2024/01/26 01:28:42;;;;;;;1.20;0.63;;;;;;;9.00;100.00;96414.53;4359637;32;20228;-59
2024/01/26 01:31:08;;;;;;;9.53;0.60;;;;;;;8.95;100.00;96405.50;4360823;32;20219;-57
2024/01/26 01:33:33;;;;;;;0.57;0.57;;;;;;;9.08;100.00;96403.47;4350578;32;20188;-59
2024/01/26 01:36:00;;;;;;;0.97;0.97;;;;;;;9.03;100.00;96400.78;4365881;32;20302;-61
2024/01/26 01:38:25;;;;;;;0.77;0.77;;;;;;;8.87;100.00;96395.41;4360623;32;20196;-58
2024/01/26 01:40:50;;;;;;;2.40;0.80;;;;;;;8.86;100.00;96399.12;4356995;32;20215;-58
2024/01/26 01:43:17;;;;;;;0.83;0.83;;;;;;;8.78;100.00;96401.44;4351554;32;20204;-59
2024/01/26 01:45:42;;;;;;;0.60;0.60;;;;;;;8.90;100.00;96392.28;4351336;32;20201;-58
2024/01/26 01:48:08;;;;;;;0.60;0.60;;;;;;;8.95;100.00;96396.78;4355512;32;20200;-59
2024/01/26 01:50:34;;;;;;;0.40;0.40;;;;;;;8.87;100.00;96398.06;4361676;32;20207;-59
2024/01/26 01:53:01;;;;;;;0.90;0.77;;;;;;;8.86;100.00;96401.75;4359486;32;20251;-58
2024/01/26 01:55:27;;;;;;;0.40;0.40;;;;;;;8.81;100.00;96403.56;4345881;32;20275;-59
2024/01/26 01:57:54;;;;;;;0.87;0.87;;;;;;;8.85;100.00;96404.66;4353494;32;20254;-59
2024/01/26 02:00:20;;;;;;;1.00;1.00;;;;;;;8.93;100.00;96406.84;4355512;32;20204;-59
2024/01/26 02:02:47;;;;;;;0.60;0.60;;;;;;;9.06;100.00;96411.66;4369742;32;20211;-59
2024/01/26 02:05:13;;;;;;;0.43;0.43;;;;;;;9.04;100.00;96402.38;4353826;32;20219;-58
2024/01/26 02:07:39;;;;;;;0.83;0.83;;;;;;;9.07;100.00;96409.81;4355416;32;20232;-59
2024/01/26 02:10:07;;;;;;;0.50;0.50;;;;;;;9.14;100.00;96407.75;4364979;32;20215;-60
2024/01/26 02:12:33;;;;;;;0.47;0.47;;;;;;;9.22;100.00;96409.91;4355710;32;20197;-59
2024/01/26 02:14:58;;;;;;;0.77;0.77;;;;;;;9.06;100.00;96406.38;4346236;32;20194;-59
2024/01/26 02:17:31;;;;;;;1.23;1.20;;;;;;;9.08;100.00;96396.34;4360665;32;20264;-58
2024/01/26 02:19:56;;;;;;;0.30;0.30;;;;;;;8.86;100.00;96400.97;4351985;32;20204;-59
2024/01/26 02:22:21;;;;;;;1.07;1.07;;;;;;;8.89;100.00;96397.81;4363826;32;20293;-59
2024/01/26 02:24:47;;;;;;;0.50;0.50;;;;;;;8.91;100.00;96396.50;4353323;32;20254;-59
2024/01/26 02:27:12;;;;;;;0.50;0.50;;;;;;;9.14;100.00;96397.16;4359369;32;20205;-58
2024/01/26 02:29:38;;;;;;;0.83;0.83;;;;;;;9.11;100.00;96398.47;4362303;32;20223;-58
2024/01/26 02:32:03;;;;;;;2.60;1.20;;;;;;;9.01;100.00;96397.59;4348417;32;20201;-59
2024/01/26 02:34:29;;;;;;;2.00;0.80;;;;;;;9.00;100.00;96401.31;4356284;32;20269;-59
2024/01/26 02:36:54;;;;;;;1.53;1.43;;;;;;;9.01;100.00;96393.09;4363101;32;22888;-59
2024/01/26 02:39:19;;;;;;;0.80;0.80;;;;;;;8.96;100.00;96385.12;4361097;32;20200;-58
2024/01/26 02:41:45;;;;;;;0.77;0.77;;;;;;;8.82;100.00;96389.28;4353876;32;20219;-59
2024/01/26 02:44:10;;;;;;;1.20;1.17;;;;;;;8.88;100.00;96389.06;4364104;32;20212;-59
2024/01/26 02:46:35;;;;;;;1.33;1.20;;;;;;;8.80;100.00;96391.41;4364167;32;20229;-59
2024/01/26 02:49:01;;;;;;;1.07;1.07;;;;;;;8.99;100.00;96389.91;4364816;32;20219;-59
2024/01/26 02:51:27;;;;;;;0.63;0.63;;;;;;;9.05;100.00;96388.91;4358371;32;20252;-59
2024/01/26 02:53:52;;;;;;;0.90;0.90;;;;;;;8.92;100.00;96390.16;4345699;32;20196;-59
2024/01/26 02:56:17;;;;;;;0.87;0.87;;;;;;;8.93;100.00;96397.06;4351271;32;20228;-58
2024/01/26 02:58:44;;;;;;;0.73;0.73;;;;;;;8.79;100.00;96395.09;4360420;32;20229;-59
2024/01/26 03:01:09;;;;;;;1.07;1.07;;;;;;;8.82;100.00;96394.59;4365825;32;20221;-59
2024/01/26 03:03:35;;;;;;;1.03;1.03;;;;;;;8.80;100.00;96392.19;4354309;32;20271;-59
2024/01/26 03:06:01;;;;;;;1.27;1.20;;;;;;;8.84;100.00;96397.78;4352790;32;20195;-58
2024/01/26 03:08:26;;;;;;;1.60;1.50;;;;;;;8.78;100.00;96396.94;4352680;32;20259;-58
2024/01/26 03:10:52;;;;;;;1.43;1.43;;;;;;;8.79;100.00;96397.72;4364717;32;20192;-58
2024/01/26 03:13:18;;;;;;;1.03;1.03;;;;;;;8.83;100.00;96393.53;4363400;32;20185;-58
2024/01/26 03:15:49;;;;;;;0.70;0.70;;;;;;;8.88;100.00;96404.16;4352713;32;20196;-58
2024/01/26 03:18:15;;;;;;;2.07;1.80;;;;;;;8.91;100.00;96404.44;4359195;32;20285;-58
2024/01/26 03:20:40;;;;;;;1.57;1.47;;;;;;;8.82;100.00;96410.47;4366939;32;20415;-59
2024/01/26 03:23:06;;;;;;;1.40;1.10;;;;;;;8.91;100.00;96408.94;4348636;32;20273;-58
2024/01/26 03:25:34;;;;;;;0.83;0.83;;;;;;;8.93;100.00;96410.28;4352360;32;20215;-58
2024/01/26 03:28:00;;;;;;;1.07;1.07;;;;;;;8.92;100.00;96416.63;4350415;32;20242;-58
2024/01/26 03:30:25;;;;;;;0.93;0.93;;;;;;;8.89;100.00;96421.63;4355890;32;20344;-58
2024/01/26 03:32:51;;;;;;;1.20;1.17;;;;;;;8.87;100.00;96424.53;4362670;32;20213;-58
2024/01/26 03:35:18;;;;;;;1.43;1.43;;;;;;;8.89;100.00;96419.78;4354251;32;20245;-58
2024/01/26 03:37:44;;;;;;;1.47;1.37;;;;;;;8.87;100.00;96418.44;4358306;32;20214;-58
2024/01/26 03:40:10;;;;;;;1.03;1.03;;;;;;;8.85;100.00;96420.53;4350730;32;20216;-58
2024/01/26 03:42:37;;;;;;;1.67;1.57;;;;;;;8.86;100.00;96419.47;4341386;32;20257;-59
2024/01/26 03:45:02;;;;;;;0.70;0.70;;;;;;;8.89;100.00;96430.38;4351662;32;20189;-59
2024/01/26 03:47:28;;;;;;;0.80;0.80;;;;;;;8.67;100.00;96427.03;4358345;32;20318;-58
2024/01/26 03:49:53;;;;;;;1.63;0.97;;;;;;;8.72;100.00;96426.28;4348602;32;20223;-58
2024/01/26 03:52:18;;;;;;;1.17;1.07;;;;;;;8.72;100.00;96424.44;4360340;32;20252;-58
2024/01/26 03:54:44;;;;;;;0.93;0.93;;;;;;;8.75;100.00;96431.03;4358434;32;20250;-58
2024/01/26 03:57:10;;;;;;;0.67;0.67;;;;;;;8.66;100.00;96428.06;4359280;32;20197;-58
2024/01/26 03:59:35;;;;;;;0.80;0.67;;;;;;;8.74;100.00;96429.44;4360009;32;20247;-59
2024/01/26 04:02:02;;;;;;;1.47;1.37;;;;;;;8.72;100.00;96427.06;4361426;32;20240;-59
2024/01/26 04:04:27;;;;;;;0.90;0.90;;;;;;;8.63;100.00;96436.50;4361948;32;20226;-58
2024/01/26 04:06:52;;;;;;;1.17;1.17;;;;;;;8.61;100.00;96442.06;4363249;32;20289;-58
2024/01/26 04:09:18;;;;;;;0.90;0.90;;;;;;;8.65;100.00;96441.56;4360521;32;20271;-58
2024/01/26 04:11:43;;;;;;;0.83;0.83;;;;;;;8.73;100.00;96444.50;4351316;32;20201;-59
2024/01/26 04:14:08;;;;;;;1.10;1.00;;;;;;;8.75;100.00;96442.41;4352502;32;20225;-58
2024/01/26 04:16:34;;;;;;;0.83;0.83;;;;;;;8.80;100.00;96447.75;4346940;32;20243;-58
2024/01/26 04:18:59;;;;;;;0.87;0.87;;;;;;;8.79;100.00;96453.28;4355054;32;20245;-59
2024/01/26 04:21:26;;;;;;;1.80;1.70;;;;;;;8.81;100.00;96446.69;4361893;32;20215;-58
2024/01/26 04:23:52;;;;;;;0.70;0.70;;;;;;;8.72;100.00;96453.53;4355366;32;20217;-59
2024/01/26 04:26:18;;;;;;;0.93;0.93;;;;;;;8.69;100.00;96447.94;4358810;32;20261;-58
2024/01/26 04:28:43;;;;;;;0.47;0.47;;;;;;;8.69;100.00;96459.31;4354804;32;20205;-58
2024/01/26 04:31:09;;;;;;;1.03;1.03;;;;;;;8.81;100.00;96456.47;4364410;32;20242;-58
2024/01/26 04:33:35;;;;;;;1.07;1.07;;;;;;;8.77;100.00;96456.19;4354437;32;20226;-62
2024/01/26 04:36:00;;;;;;;1.70;1.60;;;;;;;8.70;100.00;96458.28;4358900;32;20212;-58
2024/01/26 04:38:26;;;;;;;1.07;1.00;;;;;;;8.65;100.00;96455.56;4363076;32;20193;-58
2024/01/26 04:40:51;;;;;;;1.40;1.40;;;;;;;8.68;100.00;96457.72;4363316;32;20200;-58
2024/01/26 04:43:18;;;;;;;2.23;1.83;;;;;;;8.64;100.00;96450.53;4354893;32;20200;-59
2024/01/26 04:45:43;;;;;;;2.13;1.97;;;;;;;8.60;100.00;96452.88;4365268;32;20245;-58
2024/01/26 04:48:09;;;;;;;1.47;1.37;;;;;;;8.62;100.00;96453.44;4366484;32;20301;-58
2024/01/26 04:50:34;;;;;;;1.17;1.17;;;;;;;8.59;100.00;96456.56;4360025;32;20227;-58
2024/01/26 04:52:59;;;;;;;1.40;1.40;;;;;;;8.70;100.00;96460.91;4361022;32;20224;-58
2024/01/26 04:55:30;;;;;;;0.70;0.70;;;;;;;8.61;100.00;96459.78;4354350;32;20243;-58
2024/01/26 04:57:56;;;;;;;1.40;1.40;;;;;;;8.70;100.00;96465.41;4346900;32;20213;-58
2024/01/26 05:00:22;;;;;;;1.63;1.53;;;;;;;8.57;100.00;96461.31;4348737;32;20316;-58
2024/01/26 05:02:48;;;;;;;1.83;1.73;;;;;;;8.62;100.00;96464.00;4368536;32;20189;-58
2024/01/26 05:05:13;;;;;;;1.20;1.20;;;;;;;8.55;100.00;96452.84;4359980;32;20300;-58
2024/01/26 05:07:39;;;;;;;1.17;1.17;;;;;;;8.61;100.00;96454.47;4354731;32;20211;-58
2024/01/26 05:10:05;;;;;;;1.30;1.20;;;;;;;8.53;100.00;96457.56;4351362;32;20220;-64
2024/01/26 05:12:31;;;;;;;0.87;0.87;;;;;;;8.59;100.00;96460.03;4364135;32;20239;-58
2024/01/26 05:14:57;;;;;;;1.03;1.03;;;;;;;8.52;100.00;96475.28;4368121;32;20290;-58
2024/01/26 05:17:22;;;;;;;1.33;1.33;;;;;;;8.61;100.00;96473.00;4364379;32;20250;-58
2024/01/26 05:19:47;;;;;;;0.77;0.77;;;;;;;8.61;100.00;96473.00;4361678;32;20256;-58
2024/01/26 05:22:13;;;;;;;0.60;0.60;;;;;;;8.53;100.00;96481.38;4355295;32;20190;-58
2024/01/26 05:24:38;;;;;;;0.93;0.93;;;;;;;8.54;100.00;96478.47;4355607;32;20236;-58
2024/01/26 05:27:04;;;;;;;0.60;0.60;;;;;;;8.56;100.00;96476.38;4364274;32;20219;-58
2024/01/26 05:29:29;;;;;;;1.23;1.13;;;;;;;8.50;100.00;96495.94;4353760;32;20280;-58
2024/01/26 05:31:54;;;;;;;1.20;1.20;;;;;;;8.57;100.00;96495.69;4361830;32;20290;-58
2024/01/26 05:34:20;;;;;;;0.97;0.97;;;;;;;8.71;100.00;96494.25;4356981;32;20227;-57
2024/01/26 05:36:45;;;;;;;0.67;0.67;;;;;;;8.75;100.00;96483.94;4335370;32;20295;-58
2024/01/26 05:39:11;;;;;;;0.80;0.80;;;;;;;8.63;100.00;96494.69;4342541;32;20212;-59
2024/01/26 05:41:36;;;;;;;1.43;1.33;;;;;;;8.56;100.00;96494.91;4354468;32;20193;-58
2024/01/26 05:44:02;;;;;;;0.70;0.70;;;;;;;8.61;100.00;96486.22;4340865;32;20213;-58
2024/01/26 05:46:28;;;;;;;0.73;0.73;;;;;;;8.72;100.00;96487.91;4359265;32;20207;-58
2024/01/26 05:48:55;;;;;;;0.40;0.40;;;;;;;8.58;100.00;96507.88;4354196;32;20285;-59
2024/01/26 05:51:21;;;;;;;0.80;0.80;;;;;;;8.57;100.00;96499.16;4352605;32;20216;-58
2024/01/26 05:53:47;;;;;;;2.53;1.20;;;;;;;8.45;100.00;96493.22;4354931;32;20299;-58
2024/01/26 05:56:12;;;;;;;0.70;0.70;;;;;;;8.49;100.00;96504.09;4350988;32;20278;-58
2024/01/26 05:58:37;;;;;;;0.60;0.60;;;;;;;8.47;100.00;96500.91;4353797;32;20197;-58
2024/01/26 06:01:03;;;;;;;0.50;0.50;;;;;;;8.41;100.00;96499.25;4342613;32;20223;-58
2024/01/26 06:03:28;;;;;;;0.40;0.40;;;;;;;8.46;100.00;96500.13;4356789;32;20251;-58
2024/01/26 06:05:54;;;;;;;0.57;0.57;;;;;;;8.43;100.00;96494.53;4343561;32;20205;-58
2024/01/26 06:08:20;;;;;;;0.83;0.83;;;;;;;8.41;100.00;96496.63;4355262;32;20290;-59
2024/01/26 06:10:46;;;;;;;0.67;0.67;;;;;;;8.52;100.00;96488.50;4358936;32;20219;-58
2024/01/26 06:13:11;;;;;;;0.83;0.83;;;;;;;8.42;100.00;96495.56;4338909;32;20357;-58
2024/01/26 06:15:36;;;;;;;0.50;0.50;;;;;;;8.58;100.00;96494.66;4346895;32;20193;-58
2024/01/26 06:18:02;;;;;;;0.60;0.60;;;;;;;8.54;100.00;96490.91;4355573;32;20208;-58
2024/01/26 06:20:31;;;;;;;0.37;0.37;;;;;;;8.55;100.00;96484.56;4349802;32;20244;-58
2024/01/26 06:22:57;;;;;;;0.63;0.63;;;;;;;8.56;100.00;96486.97;4335801;32;20193;-58
2024/01/26 06:25:22;;;;;;;0.20;0.20;;;;;;;8.57;100.00;96487.75;4354929;32;20315;-58
2024/01/26 06:27:47;;;;;;;0.10;0.10;;;;;;;8.61;100.00;96483.56;4355806;32;20293;-58
2024/01/26 06:30:13;;;;;;;0.70;0.70;;;;;;;8.66;100.00;96488.13;4355096;32;20181;-58
2024/01/26 06:32:42;;;;;;;0.43;0.43;;;;;;;8.59;100.00;96483.03;4340109;32;20219;-58
2024/01/26 06:35:08;;;;;;;0.40;0.40;;;;;;;8.59;100.00;96480.37;4324932;32;20198;-58
2024/01/26 06:37:33;;;;;;;0.20;0.20;;;;;;;8.66;100.00;96482.81;4345332;32;20285;-58
2024/01/26 06:39:58;;;;;;;0.50;0.50;;;;;;;8.72;100.00;96481.81;4345017;32;20244;-58
2024/01/26 06:42:25;;;;;;;0.13;0.13;;;;;;;8.76;100.00;96474.97;4333557;32;20201;-58
2024/01/26 06:44:52;;;;;;;0.10;0.10;;;;;;;8.75;100.00;96481.28;4338853;32;20239;-58
2024/01/26 06:47:18;;;;;;;0.30;0.30;;;;;;;8.76;100.00;96477.59;4354317;32;20348;-58
2024/01/26 06:49:45;;;;;;;0.27;0.27;;;;;;;8.82;100.00;96466.81;4359428;32;20201;-58
2024/01/26 06:52:11;;;;;;;0.33;0.33;;;;;;;8.78;100.00;96472.87;4357049;32;20293;-59
2024/01/26 06:54:38;;;;;;;0.20;0.20;;;;;;;8.69;100.00;96477.03;4338318;32;20301;-58
2024/01/26 06:57:04;;;;;;;0.60;0.60;;;;;;;8.57;100.00;96479.84;4351444;32;20251;-58
2024/01/26 06:59:30;;;;;;;0.30;0.30;;;;;;;8.64;100.00;96471.69;4353253;32;20401;-58
2024/01/26 07:01:55;;;;;;;0.20;0.20;;;;;;;8.72;100.00;96474.69;4341396;32;20293;-58
2024/01/26 07:04:20;;;;;;;0.47;0.47;;;;;;;8.77;100.00;96476.56;4353268;32;20207;-58
2024/01/26 07:06:46;;;;;;;0.40;0.40;;;;;;;8.74;100.00;96472.56;4341208;32;20283;-58
2024/01/26 07:09:11;;;;;;;0.10;0.10;;;;;;;8.70;100.00;96468.06;4335072;32;20200;-58
2024/01/26 07:11:38;;;;;;;0.33;0.33;;;;;;;8.68;100.00;96470.94;4365481;32;20236;-58
2024/01/26 07:14:04;;;;;;;0.20;0.20;;;;;;;8.67;100.00;96456.13;4355600;32;20189;-58
2024/01/26 07:16:30;;;;;;;0.20;0.20;;;;;;;8.70;100.00;96460.91;4331643;32;20285;-59
2024/01/26 07:18:56;;;;;;;0.77;0.60;;;;;;;8.71;100.00;96457.22;4360705;32;20305;-58
2024/01/26 07:21:22;;;;;;;0.20;0.20;;;;;;;8.85;100.00;96455.72;4352223;32;20201;-57
2024/01/26 07:23:49;;;;;;;0.20;0.20;;;;;;;8.86;100.00;96457.31;4351921;32;20285;-58
2024/01/26 07:26:19;;;;;;;0.10;0.10;;;;;;;8.78;100.00;96457.78;4356018;32;20231;-58
2024/01/26 07:28:45;;;;;;;0.20;0.20;;;;;;;8.85;100.00;96455.72;4334425;32;20303;-58
2024/01/26 07:31:10;;;;;;;0.30;0.30;;;;;;;8.80;100.00;96460.97;4341444;32;20297;-58
2024/01/26 07:33:35;;;;;;;2.10;1.27;;;;;;;8.78;100.00;96457.78;4341117;32;20185;-62
2024/01/26 07:36:01;;;;;;;2.20;1.03;;;;;;;11.06;100.00;96455.06;4343352;32;20204;-64
2024/01/26 07:38:26;;;;;;;0.73;0.50;;;;;;;12.15;100.00;96444.63;4348808;32;20192;-64
2024/01/26 07:40:52;;;;;;;0.57;0.50;;;;;;;12.80;100.00;96454.00;4335503;32;20197;-64
2024/01/26 07:43:17;;;;;;;0.13;0.13;;;;;;;13.15;94.84;96468.06;4348688;32;20216;-64
2024/01/26 07:45:42;;;;;;;0.13;0.13;;;;;;;13.59;91.30;96459.94;4341005;32;20200;-64
2024/01/26 07:48:12;;;;;;;2.00;0.50;;;;;;;13.75;89.01;96451.47;4347833;32;20198;-63
2024/01/26 07:50:37;;;;;;;0.20;0.20;;;;;;;14.02;88.60;96458.06;4334640;32;20227;-58
2024/01/26 07:53:02;;;;;;;7.63;0.67;;;;;;;13.21;87.62;96462.47;4355325;32;20193;-58
2024/01/26 07:55:28;;;;;;;0.20;0.20;;;;;;;12.42;90.99;96471.59;4337860;32;20193;-58
2024/01/26 07:57:53;;;;;;;0.77;0.50;;;;;;;10.97;98.60;96462.78;4354142;32;20189;-58
2024/01/26 08:00:19;;;;;;;0.20;0.17;;;;;;;10.60;100.00;96462.25;4351071;32;20254;-58
2024/01/26 08:02:44;;;;;;;0.40;0.40;;;;;;;10.00;100.00;96474.31;4344447;32;20275;-59
2024/01/26 08:05:10;;;;;;;0.30;0.30;;;;;;;9.84;100.00;96462.06;4344658;32;20261;-59
2024/01/26 08:07:35;;;;;;;0.30;0.30;;;;;;;9.86;100.00;96466.06;4338558;32;20204;-61
2024/01/26 08:10:01;;;;;;;0.50;0.50;;;;;;;9.63;100.00;96469.16;4357423;32;20231;-59
2024/01/26 08:12:26;;;;;;;0.07;0.07;;;;;;;9.68;100.00;96460.44;4338712;32;20216;-59
2024/01/26 08:14:52;;;;;;;1.67;0.40;;;;;;;9.58;100.00;96456.66;4355318;32;20207;-59
2024/01/26 08:17:17;;;;;;;0.40;0.40;;;;;;;9.57;100.00;96451.63;4343465;32;20209;-59
2024/01/26 08:19:43;;;;;;;0.07;0.07;;;;;;;9.46;100.00;96442.84;4340955;32;20225;-59
2024/01/26 08:22:09;;;;;;;0.10;0.10;;;;;;;9.61;100.00;96437.62;4341700;32;20255;-59
2024/01/26 08:24:34;;;;;;;3.93;0.33;;;;;;;9.76;100.00;96430.78;4356822;32;20197;-58
2024/01/26 08:27:00;;;;;;;0.20;0.20;;;;;;;9.84;100.00;96427.63;4342269;32;20232;-59
2024/01/26 08:29:26;;;;;;;0.37;0.37;;;;;;;10.13;100.00;96430.62;4354118;32;20283;-59
2024/01/26 08:31:52;;;;;;;0.30;0.30;;;;;;;10.13;100.00;96435.91;4359779;32;20208;-59
2024/01/26 08:34:17;;;;;;;0.10;0.10;;;;;;;9.83;100.00;96426.03;4368110;32;20223;-59
2024/01/26 08:36:43;;;;;;;0.10;0.10;;;;;;;9.92;100.00;96427.91;4367879;32;20193;-60
2024/01/26 08:39:11;;;;;;;0.00;0.00;;;;;;;9.89;100.00;96430.28;4360502;32;20272;-60
2024/01/26 08:41:37;;;;;;;1.13;0.93;;;;;;;9.94;100.00;96433.75;4350063;32;20197;-67
2024/01/26 08:44:03;;;;;;;0.23;0.23;;;;;;;12.09;100.00;96417.25;4363339;32;20226;-68
2024/01/26 08:46:29;;;;;;;0.67;0.53;;;;;;;14.17;98.99;96415.16;4361702;32;20233;-67
2024/01/26 08:48:55;;;;;;;0.20;0.20;;;;;;;15.09;87.55;96420.69;4369643;32;20241;-67
2024/01/26 08:51:21;;;;;;;0.63;0.40;;;;;;;15.87;81.32;96407.44;4373754;32;20231;-68
2024/01/26 08:53:46;;;;;;;0.40;0.40;;;;;;;16.17;78.87;96408.69;4357504;32;20223;-67
2024/01/26 08:56:12;;;;;;;0.00;0.00;;;;;;;16.02;72.94;96407.09;4363123;32;20211;-66
2024/01/26 08:58:37;;;;;;;0.20;0.20;;;;;;;16.53;73.12;96409.44;4351789;32;20250;-59
2024/01/26 09:01:03;;;;;;;0.10;0.10;;;;;;;15.08;60.44;96410.28;4362178;32;20229;-59
2024/01/26 09:03:28;;;;;;;0.20;0.20;;;;;;;13.34;66.48;96408.47;4360181;32;20212;-58
2024/01/26 09:05:54;;;;;;;0.10;0.10;;;;;;;12.38;70.89;96399.50;4356392;32;20192;-59
2024/01/26 09:08:19;;;;;;;0.30;0.20;;;;;;;11.93;73.46;96415.75;4345924;32;20260;-58
2024/01/26 09:10:44;;;;;;;0.20;0.20;;;;;;;11.50;75.47;96402.09;4364659;32;20207;-59
2024/01/26 09:13:10;;;;;;;0.10;0.10;;;;;;;11.17;77.24;96392.12;4367077;32;20265;-58
2024/01/26 09:15:35;;;;;;;0.53;0.40;;;;;;;10.84;78.75;96402.25;4353235;32;20234;-62
2024/01/26 09:18:01;;;;;;;0.10;0.10;;;;;;;10.78;78.32;96397.25;4363688;32;20193;-58
2024/01/26 09:20:27;;;;;;;0.00;0.00;;;;;;;10.63;79.30;96387.41;4363905;32;20207;-57
2024/01/26 09:22:52;;;;;;;0.10;0.10;;;;;;;10.61;80.26;96384.22;4367223;32;20216;-57
2024/01/26 09:25:18;;;;;;;1.70;0.70;;;;;;;10.52;79.32;96389.31;4367372;32;20180;-58
2024/01/26 09:27:45;;;;;;;0.30;0.30;;;;;;;10.58;79.51;96376.84;4363961;32;20196;-58
2024/01/26 09:30:10;;;;;;;0.10;0.10;;;;;;;10.74;78.79;96373.09;4364327;32;20203;-59
2024/01/26 09:32:36;;;;;;;0.07;0.07;;;;;;;10.70;79.35;96377.34;4352700;32;20197;-58
2024/01/26 09:35:07;;;;;;;0.10;0.10;;;;;;;10.83;78.73;96382.09;4356796;32;20193;-61
2024/01/26 09:37:33;;;;;;;0.20;0.20;;;;;;;10.81;79.71;96384.22;4344094;32;20201;-58
2024/01/26 09:39:58;;;;;;;0.30;0.30;;;;;;;10.78;79.22;96374.16;4353433;32;20205;-58
2024/01/26 09:42:24;;;;;;;0.00;0.00;;;;;;;10.81;78.64;96376.25;4331335;32;20252;-58
2024/01/26 09:44:50;;;;;;;0.00;0.00;;;;;;;10.85;78.81;96372.00;4348690;32;20382;-58
2024/01/26 09:47:16;;;;;;;0.10;0.10;;;;;;;10.79;79.41;96369.66;4356497;32;20205;-58
2024/01/26 09:49:46;;;;;;;0.20;0.20;;;;;;;10.82;78.50;96369.09;4338364;32;20197;-58
2024/01/26 09:52:12;;;;;;;0.13;0.13;;;;;;;10.79;78.40;96374.94;4354757;32;20204;-58
2024/01/26 09:54:40;;;;;;;0.13;0.13;;;;;;;10.84;78.42;96367.75;4357465;32;20190;-58
2024/01/26 09:57:09;;;;;;;0.10;0.10;;;;;;;10.86;78.82;96359.53;4353647;32;20255;-64
2024/01/26 09:59:35;;;;;;;2.83;0.50;;;;;;;11.01;77.80;96349.66;4352372;32;20193;-58
2024/01/26 10:02:00;;;;;;;0.10;0.10;;;;;;;10.97;78.71;96361.09;4351493;32;20219;-58
2024/01/26 10:04:26;;;;;;;0.10;0.10;;;;;;;11.10;78.78;96359.72;4354171;32;20244;-59
2024/01/26 10:06:51;;;;;;;0.30;0.30;;;;;;;11.10;78.01;96365.84;4353609;32;20242;-58
2024/01/26 10:09:17;;;;;;;0.00;0.00;;;;;;;11.24;77.73;96360.75;4357948;32;20200;-59
2024/01/26 10:11:43;;;;;;;0.00;0.00;;;;;;;11.10;78.40;96370.34;4357251;32;20201;-58
2024/01/26 10:14:08;;;;;;;0.10;0.10;;;;;;;11.13;77.88;96364.50;4343844;32;20208;-58
2024/01/26 10:16:33;;;;;;;0.10;0.10;;;;;;;11.13;77.90;96365.31;4340604;32;20264;-59
2024/01/26 10:18:59;;;;;;;0.07;0.07;;;;;;;11.15;77.96;96351.75;4339924;32;20193;-59
2024/01/26 10:21:24;;;;;;;0.10;0.10;;;;;;;11.23;77.67;96356.50;4343942;32;22781;-59
2024/01/26 10:23:50;;;;;;;0.00;0.00;;;;;;;11.19;77.99;96353.59;4343399;32;20233;-59
2024/01/26 10:26:15;;;;;;;0.03;0.03;;;;;;;11.21;77.59;96351.47;4345075;32;20232;-59
2024/01/26 10:28:43;;;;;;;0.30;0.30;;;;;;;11.30;77.69;96333.09;4352893;32;20189;-59
2024/01/26 10:31:08;;;;;;;0.00;0.00;;;;;;;11.38;77.36;96332.53;4356577;32;20189;-60
2024/01/26 10:33:36;;;;;;;0.00;0.00;;;;;;;11.38;77.90;96313.94;4349371;32;20189;-59
2024/01/26 10:36:02;;;;;;;0.10;0.10;;;;;;;11.33;77.22;96312.09;4355976;32;20228;-60
2024/01/26 10:38:31;;;;;;;0.20;0.20;;;;;;;11.34;77.50;96300.41;4354096;32;20193;-60
2024/01/26 10:41:06;;;;;;;0.10;0.10;;;;;;;11.41;77.93;96302.78;4348501;32;20189;-59
2024/01/26 10:43:32;;;;;;;3.23;0.20;;;;;;;11.41;76.47;96294.81;4355362;32;20197;-59
2024/01/26 10:45:58;;;;;;;0.00;0.00;;;;;;;11.51;77.15;96294.72;4359581;32;20205;-59
2024/01/26 10:48:27;;;;;;;0.20;0.20;;;;;;;11.62;76.62;96282.97;4356501;32;20201;-60
2024/01/26 10:50:53;;;;;;;1.33;0.40;;;;;;;11.49;77.19;96275.59;4356078;32;20246;-59
2024/01/26 10:53:20;;;;;;;0.30;0.30;;;;;;;11.67;76.97;96259.00;4355614;32;20193;-59
2024/01/26 10:55:51;;;;;;;0.10;0.10;;;;;;;11.59;77.31;96256.16;4350329;32;20257;-59
2024/01/26 10:58:19;;;;;;;0.37;0.17;;;;;;;11.65;77.01;96245.19;4346397;32;20220;-57
2024/01/26 11:00:44;;;;;;;0.10;0.10;;;;;;;11.65;76.27;96244.41;4357450;32;20233;-58
2024/01/26 11:03:10;;;;;;;0.00;0.00;;;;;;;11.58;76.51;96234.09;4354821;32;20223;-58
2024/01/26 11:05:36;;;;;;;0.30;0.30;;;;;;;11.78;76.42;96222.56;4349952;32;20231;-58
2024/01/26 11:08:10;;;;;;;0.10;0.10;;;;;;;11.71;75.89;96225.50;4358963;32;20216;-58
2024/01/26 11:10:36;;;;;;;0.20;0.20;;;;;;;11.85;76.04;96211.59;4357928;32;20226;-58
2024/01/26 11:13:06;;;;;;;0.10;0.10;;;;;;;11.74;76.15;96218.03;4365866;32;20209;-58
2024/01/26 11:15:34;;;;;;;2.77;0.20;;;;;;;11.77;75.53;96209.53;4354835;32;20200;-57
2024/01/26 11:18:00;;;;;;;0.37;0.37;;;;;;;11.80;75.22;96204.47;4341640;32;20237;-58
2024/01/26 11:20:34;;;;;;;0.10;0.00;;;;;;;11.80;76.15;96211.66;4353215;32;20291;-58
2024/01/26 11:23:11;;;;;;;0.20;0.20;;;;;;;11.81;75.45;96199.94;4346988;32;20208;-58
2024/01/26 11:25:49;;;;;;;0.10;0.10;;;;;;;11.91;74.91;96197.19;4355797;32;20189;-59
2024/01/26 11:28:17;;;;;;;0.00;0.00;;;;;;;11.94;74.84;96188.66;4352645;32;20257;-58